AIC4217 VABB-OMDB
Flight info
| Callsign | AIC4217 |
|---|---|
| Flight time | N/A |
| Altitude | 38000 |
| Route | RAXET2A SAKUN V2 SUGID DCT VUSET A454 PASOV B540 KUPMA/N0472F240 B540 MIVEK P574 IMPED |
| Aircraft | B77W/H-SDE1E2E3FGHIJ2J3J4J5M1RWXY/LB1D1 |
Departure
| Time | 2026-04-29 15:11 |
|---|---|
| Airport | Chhatrapati Shivaji Maharaj International Airport (VABB) |
Arrival
| Time | N/A |
|---|---|
| Airport | Dubai International Airport (OMDB) |
| Time | Latitude | Longitude | Altitude | Speed | Heading |
|---|---|---|---|---|---|
| 2026-04-29 14:38 | 19.09337 | 72.87271 | 50 ft | 0 kts | 306° |
| 2026-04-29 14:55 | 19.09328 | 72.87284 | 47 ft | 2 kts | 306° |
| 2026-04-29 14:55 | 19.09319 | 72.87298 | 49 ft | 2 kts | 306° |
| 2026-04-29 14:56 | 19.09309 | 72.87312 | 48 ft | 2 kts | 306° |
| 2026-04-29 14:56 | 19.09302 | 72.87321 | 48 ft | 2 kts | 306° |
| 2026-04-29 14:56 | 19.09291 | 72.87340 | 48 ft | 2 kts | 275° |
| 2026-04-29 14:56 | 19.09288 | 72.87357 | 46 ft | 2 kts | 329° |
| 2026-04-29 14:57 | 19.09275 | 72.87361 | 46 ft | 0 kts | 6° |
| 2026-04-29 14:58 | 19.09304 | 72.87363 | 48 ft | 8 kts | 3° |
| 2026-04-29 14:59 | 19.09363 | 72.87375 | 49 ft | 10 kts | 27° |
| 2026-04-29 14:59 | 19.09412 | 72.87428 | 50 ft | 10 kts | 60° |
| 2026-04-29 14:59 | 19.09404 | 72.87497 | 50 ft | 11 kts | 130° |
| 2026-04-29 14:59 | 19.09356 | 72.87558 | 51 ft | 11 kts | 129° |
| 2026-04-29 15:00 | 19.09304 | 72.87623 | 48 ft | 11 kts | 129° |
| 2026-04-29 15:00 | 19.09278 | 72.87652 | 48 ft | 6 kts | 142° |
| 2026-04-29 15:00 | 19.09239 | 72.87669 | 48 ft | 6 kts | 168° |
| 2026-04-29 15:00 | 19.09195 | 72.87674 | 49 ft | 5 kts | 173° |
| 2026-04-29 15:01 | 19.09179 | 72.87679 | 51 ft | 4 kts | 161° |
| 2026-04-29 15:01 | 19.09151 | 72.87711 | 54 ft | 7 kts | 111° |
| 2026-04-29 15:01 | 19.09148 | 72.87740 | 54 ft | 2 kts | 95° |
| 2026-04-29 15:01 | 19.09145 | 72.87757 | 52 ft | 3 kts | 102° |
| 2026-04-29 15:02 | 19.09135 | 72.87779 | 47 ft | 4 kts | 123° |
| 2026-04-29 15:02 | 19.09113 | 72.87796 | 47 ft | 4 kts | 154° |
| 2026-04-29 15:02 | 19.09081 | 72.87811 | 50 ft | 6 kts | 153° |
| 2026-04-29 15:02 | 19.09059 | 72.87847 | 49 ft | 6 kts | 95° |
| 2026-04-29 15:03 | 19.09060 | 72.87858 | 49 ft | 3 kts | 89° |
| 2026-04-29 15:03 | 19.09060 | 72.87942 | 53 ft | 9 kts | 89° |
| 2026-04-29 15:03 | 19.09061 | 72.87986 | 53 ft | 9 kts | 89° |
| 2026-04-29 15:03 | 19.09058 | 72.88030 | 53 ft | 5 kts | 111° |
| 2026-04-29 15:04 | 19.09013 | 72.88052 | 48 ft | 0 kts | 176° |
| 2026-04-29 15:04 | 19.09011 | 72.88052 | 49 ft | 0 kts | 177° |
| 2026-04-29 15:10 | 19.08958 | 72.88055 | 47 ft | 15 kts | 177° |
| 2026-04-29 15:10 | 19.08897 | 72.88045 | 47 ft | 7 kts | 219° |
| 2026-04-29 15:10 | 19.08889 | 72.88021 | 45 ft | 0 kts | 268° |
| 2026-04-29 15:10 | 19.08885 | 72.87902 | 48 ft | 52 kts | 269° |
| 2026-04-29 15:11 | 19.08876 | 72.87216 | 52 ft | 132 kts | 269° |
| 2026-04-29 15:11 | 19.08855 | 72.86006 | 143 ft | 189 kts | 269° |
| 2026-04-29 15:11 | 19.08846 | 72.84544 | 741 ft | 206 kts | 271° |
| 2026-04-29 15:11 | 19.08874 | 72.82985 | 1411 ft | 225 kts | 272° |
| 2026-04-29 15:12 | 19.08885 | 72.81308 | 2430 ft | 223 kts | 270° |
| 2026-04-29 15:12 | 19.08835 | 72.79599 | 3245 ft | 246 kts | 269° |
| 2026-04-29 15:12 | 19.08781 | 72.77739 | 4047 ft | 259 kts | 269° |
| 2026-04-29 15:12 | 19.08731 | 72.75810 | 5046 ft | 264 kts | 270° |
| 2026-04-29 15:13 | 19.08744 | 72.73880 | 6144 ft | 262 kts | 277° |
| 2026-04-29 15:13 | 19.09009 | 72.71962 | 7065 ft | 265 kts | 279° |
| 2026-04-29 15:13 | 19.09297 | 72.70018 | 7999 ft | 272 kts | 278° |
| 2026-04-29 15:13 | 19.09593 | 72.68022 | 8952 ft | 278 kts | 278° |
| 2026-04-29 15:14 | 19.09895 | 72.65984 | 9938 ft | 283 kts | 277° |
| 2026-04-29 15:14 | 19.10204 | 72.63878 | 10615 ft | 300 kts | 277° |
| 2026-04-29 15:14 | 19.10539 | 72.61583 | 10858 ft | 332 kts | 277° |
| 2026-04-29 15:14 | 19.10908 | 72.59049 | 11085 ft | 363 kts | 278° |
| 2026-04-29 15:15 | 19.11299 | 72.56363 | 11702 ft | 377 kts | 278° |
| 2026-04-29 15:15 | 19.11705 | 72.53587 | 12528 ft | 385 kts | 278° |
| 2026-04-29 15:15 | 19.12115 | 72.50772 | 13458 ft | 390 kts | 278° |
| 2026-04-29 15:15 | 19.12530 | 72.47926 | 14317 ft | 394 kts | 279° |
| 2026-04-29 15:16 | 19.12947 | 72.45050 | 15137 ft | 398 kts | 279° |
| 2026-04-29 15:16 | 19.13370 | 72.42140 | 15940 ft | 403 kts | 279° |
| 2026-04-29 15:16 | 19.13796 | 72.39194 | 16744 ft | 408 kts | 280° |
| 2026-04-29 15:16 | 19.14226 | 72.36216 | 17562 ft | 412 kts | 280° |
| 2026-04-29 15:17 | 19.14661 | 72.33202 | 18346 ft | 416 kts | 280° |
| 2026-04-29 15:17 | 19.15099 | 72.30163 | 19052 ft | 421 kts | 280° |
| 2026-04-29 15:17 | 19.15542 | 72.27086 | 19726 ft | 426 kts | 280° |
| 2026-04-29 15:17 | 19.15990 | 72.23971 | 20410 ft | 430 kts | 280° |
| 2026-04-29 15:18 | 19.16441 | 72.20828 | 21089 ft | 435 kts | 281° |
| 2026-04-29 15:18 | 19.16891 | 72.17688 | 21778 ft | 439 kts | 281° |
| 2026-04-29 15:18 | 19.17357 | 72.14433 | 22473 ft | 444 kts | 281° |
| 2026-04-29 15:18 | 19.17821 | 72.11190 | 23147 ft | 449 kts | 281° |
| 2026-04-29 15:19 | 19.18289 | 72.07910 | 23736 ft | 453 kts | 281° |
| 2026-04-29 15:19 | 19.18760 | 72.04601 | 24311 ft | 456 kts | 280° |
| 2026-04-29 15:19 | 19.19234 | 72.01273 | 24913 ft | 458 kts | 280° |
| 2026-04-29 15:19 | 19.19708 | 71.97935 | 25473 ft | 460 kts | 280° |
| 2026-04-29 15:20 | 19.20184 | 71.94577 | 26005 ft | 463 kts | 280° |
| 2026-04-29 15:20 | 19.20657 | 71.91245 | 26516 ft | 466 kts | 280° |
| 2026-04-29 15:20 | 19.21138 | 71.87848 | 27002 ft | 469 kts | 280° |
| 2026-04-29 15:20 | 19.21622 | 71.84424 | 27486 ft | 472 kts | 280° |
| 2026-04-29 15:21 | 19.22109 | 71.80976 | 27952 ft | 475 kts | 280° |
| 2026-04-29 15:21 | 19.22597 | 71.77515 | 28396 ft | 477 kts | 280° |
| 2026-04-29 15:21 | 19.23087 | 71.74034 | 28806 ft | 480 kts | 279° |
| 2026-04-29 15:21 | 19.23579 | 71.70533 | 29186 ft | 482 kts | 279° |
| 2026-04-29 15:22 | 19.24072 | 71.67022 | 29529 ft | 484 kts | 279° |
| 2026-04-29 15:22 | 19.24568 | 71.63483 | 29865 ft | 487 kts | 279° |
| 2026-04-29 15:22 | 19.25065 | 71.59936 | 30156 ft | 488 kts | 279° |
| 2026-04-29 15:22 | 19.25562 | 71.56381 | 30491 ft | 488 kts | 280° |
| 2026-04-29 15:23 | 19.26058 | 71.52831 | 30848 ft | 488 kts | 280° |
| 2026-04-29 15:23 | 19.26553 | 71.49275 | 31204 ft | 488 kts | 280° |
| 2026-04-29 15:23 | 19.27047 | 71.45726 | 31552 ft | 488 kts | 281° |
| 2026-04-29 15:23 | 19.27542 | 71.42167 | 31900 ft | 488 kts | 281° |
| 2026-04-29 15:24 | 19.28035 | 71.38618 | 32274 ft | 488 kts | 281° |
| 2026-04-29 15:24 | 19.28529 | 71.35055 | 32639 ft | 488 kts | 281° |
| 2026-04-29 15:24 | 19.29020 | 71.31501 | 33003 ft | 488 kts | 281° |
| 2026-04-29 15:24 | 19.29512 | 71.27946 | 33374 ft | 488 kts | 282° |
| 2026-04-29 15:25 | 19.30002 | 71.24394 | 33758 ft | 488 kts | 282° |
| 2026-04-29 15:25 | 19.30491 | 71.20838 | 34095 ft | 488 kts | 282° |
| 2026-04-29 15:25 | 19.30979 | 71.17294 | 34469 ft | 486 kts | 282° |
| 2026-04-29 15:25 | 19.31463 | 71.13764 | 34852 ft | 484 kts | 282° |
| 2026-04-29 15:26 | 19.31947 | 71.10236 | 35227 ft | 483 kts | 282° |
| 2026-04-29 15:26 | 19.32429 | 71.06721 | 35581 ft | 482 kts | 282° |
| 2026-04-29 15:26 | 19.32909 | 71.03212 | 35926 ft | 481 kts | 282° |
| 2026-04-29 15:26 | 19.33381 | 70.99758 | 36280 ft | 480 kts | 282° |
| 2026-04-29 15:27 | 19.33857 | 70.96264 | 36647 ft | 479 kts | 282° |
| 2026-04-29 15:27 | 19.34333 | 70.92774 | 37000 ft | 478 kts | 282° |
| 2026-04-29 15:27 | 19.34806 | 70.89295 | 37335 ft | 477 kts | 282° |
| 2026-04-29 15:27 | 19.35277 | 70.85826 | 37662 ft | 476 kts | 282° |
| 2026-04-29 15:28 | 19.35751 | 70.82341 | 37772 ft | 480 kts | 282° |
| 2026-04-29 15:28 | 19.36701 | 70.75325 | 37812 ft | 480 kts | 282° |
| 2026-04-29 15:29 | 19.37637 | 70.68377 | 37810 ft | 474 kts | 282° |
| 2026-04-29 15:30 | 19.39490 | 70.54579 | 37823 ft | 472 kts | 282° |
| 2026-04-29 15:30 | 19.40413 | 70.47687 | 37824 ft | 473 kts | 282° |
| 2026-04-29 15:31 | 19.41335 | 70.40775 | 37824 ft | 475 kts | 281° |
| 2026-04-29 15:31 | 19.42257 | 70.33845 | 37835 ft | 476 kts | 281° |
| 2026-04-29 15:32 | 19.43178 | 70.26895 | 37816 ft | 477 kts | 281° |
| 2026-04-29 15:32 | 19.44093 | 70.19970 | 37825 ft | 478 kts | 281° |
| 2026-04-29 15:33 | 19.45012 | 70.12997 | 37825 ft | 478 kts | 281° |
| 2026-04-29 15:33 | 19.45929 | 70.06016 | 37828 ft | 478 kts | 281° |
| 2026-04-29 15:34 | 19.46844 | 69.99028 | 37821 ft | 478 kts | 281° |
| 2026-04-29 15:34 | 19.47755 | 69.92054 | 37817 ft | 478 kts | 281° |
| 2026-04-29 15:35 | 19.48662 | 69.85079 | 37823 ft | 477 kts | 281° |
| 2026-04-29 15:35 | 19.49567 | 69.78112 | 37830 ft | 477 kts | 281° |
| 2026-04-29 15:36 | 19.50467 | 69.71152 | 37831 ft | 477 kts | 281° |
| 2026-04-29 15:36 | 19.51364 | 69.64202 | 37825 ft | 476 kts | 281° |
| 2026-04-29 15:37 | 19.52258 | 69.57246 | 37822 ft | 476 kts | 281° |
| 2026-04-29 15:37 | 19.53150 | 69.50291 | 37828 ft | 476 kts | 281° |
| 2026-04-29 15:38 | 19.54040 | 69.43330 | 37826 ft | 476 kts | 281° |
| 2026-04-29 15:38 | 19.55202 | 69.36442 | 37829 ft | 473 kts | 288° |
| 2026-04-29 15:39 | 19.57416 | 69.29910 | 37814 ft | 469 kts | 298° |
| 2026-04-29 15:39 | 19.60324 | 69.23717 | 37816 ft | 469 kts | 299° |
| 2026-04-29 15:40 | 19.63266 | 69.17592 | 37815 ft | 469 kts | 299° |
| 2026-04-29 15:40 | 19.66208 | 69.11407 | 37834 ft | 470 kts | 299° |
| 2026-04-29 15:41 | 19.69130 | 69.05203 | 37830 ft | 470 kts | 299° |
| 2026-04-29 15:41 | 19.72046 | 68.98987 | 37831 ft | 470 kts | 298° |
| 2026-04-29 15:42 | 19.74957 | 68.92771 | 37818 ft | 470 kts | 298° |
| 2026-04-29 15:42 | 19.77867 | 68.86553 | 37815 ft | 470 kts | 298° |
| 2026-04-29 15:43 | 19.80779 | 68.80328 | 37815 ft | 470 kts | 298° |
| 2026-04-29 15:43 | 19.83684 | 68.74109 | 37829 ft | 470 kts | 298° |
| 2026-04-29 15:44 | 19.85627 | 68.69945 | 37811 ft | 470 kts | 298° |